createdAt,value
2022-12-14T00:01:34.732Z,36.00
2022-12-14T00:04:01.458Z,36.00
2022-12-14T00:06:30.779Z,36.00
2022-12-14T00:08:59.958Z,36.00
2022-12-14T00:11:27.512Z,36.60
2022-12-14T00:13:57.149Z,36.00
2022-12-14T00:16:26.389Z,36.00
2022-12-14T00:18:54.599Z,36.00
2022-12-14T00:21:22.081Z,36.00
2022-12-14T00:23:50.384Z,36.00
2022-12-14T00:26:29.681Z,36.00
2022-12-14T00:28:58.071Z,36.60
2022-12-14T00:31:25.408Z,36.00
2022-12-14T00:33:52.617Z,36.00
2022-12-14T00:36:20.270Z,36.00
2022-12-14T00:38:46.990Z,35.90
2022-12-14T00:41:13.821Z,35.90
2022-12-14T00:43:41.037Z,35.90
2022-12-14T00:46:08.475Z,36.00
2022-12-14T00:48:35.697Z,35.90
2022-12-14T00:51:02.449Z,35.90
2022-12-14T00:53:29.202Z,35.90
2022-12-14T00:55:55.961Z,36.00
2022-12-14T00:58:24.938Z,36.00
2022-12-14T01:01:04.042Z,36.00
2022-12-14T01:03:31.537Z,36.00
2022-12-14T01:05:58.854Z,36.00
2022-12-14T01:08:25.910Z,36.00
2022-12-14T01:10:53.058Z,36.00
2022-12-14T01:13:19.736Z,36.00
2022-12-14T01:15:46.839Z,36.00
2022-12-14T01:18:13.681Z,35.90
2022-12-14T01:20:40.345Z,36.00
2022-12-14T01:23:07.165Z,36.00
2022-12-14T01:25:34.325Z,36.00
2022-12-14T01:28:01.026Z,36.00
2022-12-14T01:30:27.897Z,36.10
2022-12-14T01:32:54.619Z,36.00
2022-12-14T01:35:21.356Z,36.10
2022-12-14T01:37:49.196Z,36.00
2022-12-14T01:40:16.824Z,36.00
2022-12-14T01:42:43.653Z,36.00
2022-12-14T01:45:22.181Z,36.00
2022-12-14T01:47:59.950Z,36.00
2022-12-14T01:50:29.926Z,36.00
2022-12-14T01:53:01.611Z,36.00
2022-12-14T01:55:33.437Z,36.00
2022-12-14T01:58:12.193Z,36.00
2022-12-14T02:00:38.991Z,36.00
2022-12-14T02:03:15.069Z,36.00
2022-12-14T02:05:47.695Z,37.30
2022-12-14T02:08:16.245Z,36.10
2022-12-14T02:10:44.569Z,36.00
2022-12-14T02:13:31.479Z,36.00
2022-12-14T02:15:58.696Z,36.30
2022-12-14T02:18:28.238Z,36.00
2022-12-14T02:21:01.407Z,36.10
2022-12-14T02:23:37.375Z,36.10
2022-12-14T02:26:31.043Z,36.10
2022-12-14T02:29:07.002Z,36.60
2022-12-14T02:31:41.019Z,36.10
2022-12-14T02:34:39.985Z,36.00
2022-12-14T02:37:25.143Z,36.00
2022-12-14T02:40:22.539Z,36.10
2022-12-14T02:43:17.282Z,36.70
2022-12-14T02:45:54.946Z,36.10
2022-12-14T02:48:26.270Z,36.20
2022-12-14T02:51:30.972Z,36.10
2022-12-14T02:54:02.640Z,36.10
2022-12-14T02:56:36.546Z,36.00
2022-12-14T02:59:06.423Z,36.10
2022-12-14T03:01:36.678Z,36.10
2022-12-14T03:04:03.820Z,36.10
2022-12-14T03:06:30.873Z,36.10
2022-12-14T03:09:11.066Z,36.10
2022-12-14T03:11:48.993Z,36.10
2022-12-14T03:14:29.734Z,36.10
2022-12-14T03:17:05.135Z,36.40
2022-12-14T03:19:44.705Z,36.10
2022-12-14T03:22:22.190Z,36.10
2022-12-14T03:24:53.789Z,36.10
2022-12-14T03:27:27.440Z,36.50
2022-12-14T03:30:05.514Z,36.10
2022-12-14T03:32:35.624Z,36.10
2022-12-14T03:35:07.399Z,36.10
2022-12-14T03:37:53.571Z,36.10
2022-12-14T03:40:28.733Z,36.10
2022-12-14T03:43:40.173Z,36.10
2022-12-14T03:46:22.802Z,36.10
2022-12-14T03:48:54.678Z,36.10
2022-12-14T03:51:35.344Z,36.10
2022-12-14T03:56:48.315Z,36.00
2022-12-14T03:59:34.198Z,36.00
2022-12-14T04:07:25.547Z,36.00
2022-12-14T04:10:25.439Z,36.10
2022-12-14T04:13:17.918Z,37.40
2022-12-14T04:16:06.815Z,36.00
2022-12-14T04:18:59.800Z,36.00
2022-12-14T04:21:44.596Z,36.30
2022-12-14T04:24:50.798Z,36.00
2022-12-14T04:27:39.126Z,35.90
2022-12-14T04:30:08.600Z,36.00
2022-12-14T04:32:51.805Z,36.00
2022-12-14T04:35:53.938Z,36.00
2022-12-14T04:38:32.982Z,36.00
2022-12-14T04:41:06.403Z,36.00
2022-12-14T04:43:39.055Z,36.00
2022-12-14T04:46:13.870Z,36.00
2022-12-14T04:48:56.886Z,36.00
2022-12-14T04:51:27.523Z,36.60
2022-12-14T04:53:59.974Z,36.00
2022-12-14T04:56:44.335Z,36.00
2022-12-14T04:59:11.155Z,36.00
2022-12-14T05:01:48.927Z,36.00
2022-12-14T05:04:40.941Z,36.10
2022-12-14T05:07:32.267Z,36.00
2022-12-14T05:10:16.445Z,36.00
2022-12-14T05:13:08.475Z,36.00
2022-12-14T05:15:49.120Z,36.00
2022-12-14T05:18:16.314Z,36.00
2022-12-14T05:20:43.165Z,35.90
2022-12-14T05:23:09.980Z,35.90
2022-12-14T05:25:36.689Z,36.00
2022-12-14T05:28:03.714Z,36.00
2022-12-14T05:30:30.707Z,36.00
2022-12-14T05:32:57.758Z,35.90
2022-12-14T05:35:24.497Z,36.00
2022-12-14T05:37:51.237Z,36.00
2022-12-14T05:40:18.229Z,35.90
2022-12-14T05:42:47.699Z,36.00
2022-12-14T05:45:17.841Z,36.00
2022-12-14T05:47:45.026Z,35.90
2022-12-14T05:50:12.102Z,35.90
2022-12-14T05:52:38.902Z,35.90
2022-12-14T05:55:06.589Z,36.00
2022-12-14T05:57:33.339Z,36.00
2022-12-14T06:00:00.169Z,35.90
2022-12-14T06:02:27.145Z,35.90
2022-12-14T06:04:54.056Z,35.90
2022-12-14T06:07:27.300Z,35.90
2022-12-14T06:09:54.513Z,35.90
2022-12-14T06:12:21.236Z,35.90
2022-12-14T06:17:15.294Z,35.80
2022-12-14T06:19:43.039Z,35.80
2022-12-14T06:22:16.809Z,35.80
2022-12-14T06:24:43.519Z,35.80
2022-12-14T06:27:10.253Z,35.80
2022-12-14T06:29:36.980Z,35.70
2022-12-14T06:32:03.822Z,35.70
2022-12-14T06:34:32.897Z,35.70
2022-12-14T06:37:03.566Z,35.70
2022-12-14T06:39:30.407Z,35.70
2022-12-14T06:41:57.169Z,35.60
2022-12-14T06:44:23.886Z,35.60
2022-12-14T06:46:50.736Z,35.60
2022-12-14T06:49:17.524Z,35.60
2022-12-14T06:51:44.318Z,35.60
2022-12-14T06:54:12.678Z,35.60
2022-12-14T06:56:40.614Z,35.70
2022-12-14T06:59:08.668Z,35.60
2022-12-14T07:01:36.792Z,35.70
2022-12-14T07:04:05.003Z,35.50
2022-12-14T07:06:34.787Z,35.60
2022-12-14T07:09:02.252Z,35.50
2022-12-14T07:11:30.879Z,35.50
2022-12-14T07:18:59.135Z,35.60
2022-12-14T07:21:26.670Z,35.50
2022-12-14T07:23:53.541Z,35.50
2022-12-14T07:26:23.136Z,35.50
2022-12-14T07:28:50.770Z,35.50
2022-12-14T07:31:23.105Z,35.60
2022-12-14T07:33:52.424Z,35.60
2022-12-14T07:36:22.241Z,35.40
2022-12-14T07:38:51.426Z,35.60
2022-12-14T07:41:24.212Z,35.60
2022-12-14T07:43:53.594Z,35.50
2022-12-14T07:46:23.890Z,35.50
2022-12-14T07:48:56.256Z,35.50
2022-12-14T07:53:52.665Z,35.60
2022-12-14T07:56:21.883Z,35.50
2022-12-14T08:01:20.529Z,35.40
2022-12-14T08:03:49.758Z,35.50
2022-12-14T08:06:18.352Z,35.50
2022-12-14T08:13:43.199Z,35.40
2022-12-14T08:16:13.394Z,35.40
2022-12-14T08:21:08.968Z,35.40
2022-12-14T08:23:36.566Z,35.40
2022-12-14T08:26:05.005Z,35.40
2022-12-14T08:28:32.787Z,35.40
2022-12-14T08:31:12.268Z,35.40
2022-12-14T08:36:13.021Z,35.40
2022-12-14T08:38:40.944Z,35.30
2022-12-14T08:41:16.544Z,35.30
2022-12-14T08:43:55.131Z,35.30
2022-12-14T08:46:22.638Z,35.40
2022-12-14T08:48:52.422Z,35.30
2022-12-14T08:51:20.497Z,35.30
2022-12-14T08:53:47.703Z,35.30
2022-12-14T08:56:19.059Z,35.30
2022-12-14T08:58:46.103Z,35.30
2022-12-14T09:01:15.789Z,35.30
2022-12-14T09:03:44.957Z,35.40
2022-12-14T09:06:18.054Z,35.30
2022-12-14T09:08:45.187Z,35.30
2022-12-14T09:11:13.930Z,35.30
2022-12-14T09:13:43.215Z,35.40
2022-12-14T09:16:15.793Z,35.30
2022-12-14T09:18:42.881Z,35.30
2022-12-14T09:23:38.760Z,35.30
2022-12-14T09:26:10.121Z,35.30
2022-12-14T09:28:39.712Z,35.30
2022-12-14T09:31:09.965Z,35.30
2022-12-14T09:33:36.984Z,35.20
2022-12-14T09:36:13.791Z,35.30
2022-12-14T09:38:46.957Z,35.90
2022-12-14T09:41:26.485Z,35.30
2022-12-14T09:44:04.354Z,35.30
2022-12-14T09:46:52.644Z,35.50
2022-12-14T09:49:41.159Z,35.40
2022-12-14T09:52:15.710Z,35.40
2022-12-14T09:54:44.346Z,35.40
2022-12-14T09:57:18.787Z,35.60
2022-12-14T10:02:31.338Z,35.40
2022-12-14T10:05:05.398Z,35.40
2022-12-14T10:07:55.061Z,35.40
2022-12-14T10:15:35.121Z,36.20
2022-12-14T10:21:22.947Z,37.40
2022-12-14T10:24:02.460Z,37.90
2022-12-14T10:26:37.094Z,38.10
2022-12-14T10:29:11.666Z,38.30
2022-12-14T10:34:24.896Z,38.60
2022-12-14T10:39:49.482Z,38.70
2022-12-14T10:45:09.695Z,38.90
2022-12-14T10:47:53.717Z,38.90
2022-12-14T10:50:34.549Z,38.90
2022-12-14T10:53:04.051Z,38.90
2022-12-14T10:55:35.692Z,39.00
2022-12-14T10:58:03.572Z,38.90
2022-12-14T11:00:30.373Z,39.00
2022-12-14T11:02:58.327Z,39.00
2022-12-14T11:05:40.990Z,39.10
2022-12-14T11:08:08.782Z,39.10
2022-12-14T11:10:39.288Z,39.10
2022-12-14T11:13:08.991Z,39.10
2022-12-14T11:15:37.675Z,39.10
2022-12-14T11:20:59.359Z,39.10
2022-12-14T11:23:29.411Z,39.10
2022-12-14T11:26:02.014Z,39.10
2022-12-14T11:28:36.989Z,39.10
2022-12-14T11:31:22.050Z,39.10
2022-12-14T11:33:54.893Z,39.10
2022-12-14T11:39:03.144Z,39.10
2022-12-14T11:41:36.908Z,39.00
2022-12-14T11:44:14.391Z,39.00
2022-12-14T11:47:02.247Z,39.00
2022-12-14T11:49:42.373Z,39.00
2022-12-14T11:52:13.520Z,39.10
2022-12-14T11:54:50.210Z,39.00
2022-12-14T11:57:32.218Z,39.10
2022-12-14T12:00:04.638Z,39.00
2022-12-14T12:02:36.263Z,39.00
2022-12-14T12:05:14.464Z,39.00
2022-12-14T12:07:50.450Z,39.00
2022-12-14T12:10:28.155Z,39.10
2022-12-14T12:13:01.278Z,39.10
2022-12-14T12:15:31.171Z,39.10
2022-12-14T12:18:25.664Z,39.10
2022-12-14T12:23:27.166Z,39.10
2022-12-14T12:25:56.428Z,39.00
2022-12-14T12:28:28.358Z,39.00
2022-12-14T12:31:09.013Z,39.10
2022-12-14T12:33:47.305Z,39.10
2022-12-14T12:36:23.382Z,39.00
2022-12-14T12:39:15.546Z,39.00
2022-12-14T12:42:03.621Z,39.00
2022-12-14T12:44:52.405Z,39.00
2022-12-14T12:47:46.248Z,39.00
2022-12-14T12:50:18.092Z,39.00
2022-12-14T12:53:14.680Z,39.00
2022-12-14T12:55:47.238Z,39.30
2022-12-14T12:58:29.232Z,39.10
2022-12-14T13:01:00.073Z,39.00
2022-12-14T13:03:37.485Z,38.90
2022-12-14T13:06:19.871Z,39.00
2022-12-14T13:08:51.568Z,39.00
2022-12-14T13:14:03.295Z,39.00
2022-12-14T13:16:37.111Z,38.90
2022-12-14T13:22:24.674Z,38.90
2022-12-14T13:24:58.688Z,38.90
2022-12-14T13:27:37.956Z,38.90
2022-12-14T13:30:38.776Z,38.90
2022-12-14T13:41:21.354Z,38.50
2022-12-14T13:46:24.702Z,38.80
2022-12-14T13:48:55.399Z,38.80
2022-12-14T13:51:31.137Z,38.80
2022-12-14T13:53:59.526Z,38.80
2022-12-14T13:56:39.473Z,38.80
2022-12-14T13:59:37.909Z,38.80
2022-12-14T14:02:05.890Z,38.80
2022-12-14T14:04:35.727Z,38.80
2022-12-14T14:07:24.346Z,38.80
2022-12-14T14:10:02.053Z,38.80
2022-12-14T14:12:37.819Z,39.00
2022-12-14T14:15:04.785Z,38.80
2022-12-14T14:23:28.424Z,38.70
2022-12-14T14:26:18.138Z,38.70
2022-12-14T14:31:16.594Z,38.70
2022-12-14T14:33:54.755Z,38.70
2022-12-14T14:36:33.072Z,38.80
2022-12-14T14:41:53.699Z,38.80
2022-12-14T14:44:33.752Z,38.80
2022-12-14T14:47:07.394Z,39.00
2022-12-14T14:49:40.194Z,38.90
2022-12-14T14:52:41.555Z,38.90
2022-12-14T14:55:52.664Z,38.90
2022-12-14T14:58:46.934Z,38.90
2022-12-14T15:01:29.122Z,38.90
2022-12-14T15:04:03.873Z,38.80
2022-12-14T15:06:40.919Z,38.90
2022-12-14T15:09:13.310Z,38.80
2022-12-14T15:11:50.818Z,38.70
2022-12-14T15:14:33.074Z,38.80
2022-12-14T15:17:19.318Z,38.80
2022-12-14T15:22:19.363Z,38.80
2022-12-14T15:24:50.579Z,38.70
2022-12-14T15:27:27.142Z,38.70
2022-12-14T15:30:11.697Z,38.70
2022-12-14T15:32:54.277Z,38.70
2022-12-14T15:35:28.437Z,38.80
2022-12-14T15:38:00.251Z,38.60
2022-12-14T15:40:32.101Z,38.70
2022-12-14T15:43:01.351Z,38.50
2022-12-14T15:45:31.496Z,38.60
2022-12-14T15:48:14.039Z,38.60
2022-12-14T15:50:45.142Z,38.60
2022-12-14T15:53:21.809Z,38.60
2022-12-14T15:56:00.300Z,38.50
2022-12-14T15:58:35.602Z,38.50
2022-12-14T16:01:13.908Z,38.50
2022-12-14T16:03:45.047Z,38.50
2022-12-14T16:06:14.188Z,37.40
2022-12-14T16:08:52.120Z,38.40
2022-12-14T16:11:44.441Z,39.00
2022-12-14T16:14:26.433Z,39.50
2022-12-14T16:16:53.645Z,39.60
2022-12-14T16:19:29.849Z,40.00
2022-12-14T16:22:10.228Z,40.60
2022-12-14T16:24:38.244Z,40.80
2022-12-14T16:29:33.518Z,41.80
2022-12-14T16:32:06.921Z,42.00
2022-12-14T16:34:34.270Z,42.00
2022-12-14T16:39:52.363Z,42.50
2022-12-14T16:42:24.999Z,42.40
2022-12-14T16:44:54.015Z,42.50
2022-12-14T16:47:20.759Z,42.60
2022-12-14T16:49:54.913Z,42.80
2022-12-14T16:52:26.229Z,43.10
2022-12-14T16:55:17.657Z,43.30
2022-12-14T16:57:55.665Z,43.50
2022-12-14T17:03:00.491Z,43.50
2022-12-14T17:08:07.170Z,43.10
2022-12-14T17:13:03.681Z,42.80
2022-12-14T17:15:33.413Z,42.30
2022-12-14T17:18:03.890Z,42.30
2022-12-14T17:20:36.238Z,42.20
2022-12-14T17:23:04.274Z,41.90
2022-12-14T17:25:32.735Z,41.80
2022-12-14T17:28:00.501Z,41.60
2022-12-14T17:30:27.557Z,41.50
2022-12-14T17:32:55.512Z,41.30
2022-12-14T17:35:25.273Z,41.30
2022-12-14T17:37:53.092Z,41.20
2022-12-14T17:40:19.849Z,41.20
2022-12-14T17:42:51.626Z,41.10
2022-12-14T17:45:24.583Z,41.00
2022-12-14T17:50:19.554Z,41.20
2022-12-14T17:52:47.585Z,40.80
2022-12-14T17:55:19.930Z,40.70
2022-12-14T17:57:47.145Z,40.60
2022-12-14T18:00:39.954Z,40.60
2022-12-14T18:03:08.958Z,40.50
2022-12-14T18:05:36.377Z,40.50
2022-12-14T18:10:30.985Z,40.20
2022-12-14T18:15:37.792Z,40.10
2022-12-14T18:18:06.774Z,40.10
2022-12-14T18:23:00.923Z,40.00
2022-12-14T18:25:30.245Z,39.90
2022-12-14T18:27:57.494Z,39.80
2022-12-14T18:30:24.729Z,39.80
2022-12-14T18:35:21.190Z,39.70
2022-12-14T18:40:19.391Z,39.60
2022-12-14T18:45:22.626Z,39.50
2022-12-14T18:47:49.822Z,39.60
2022-12-14T18:50:18.575Z,39.70
2022-12-14T18:52:46.708Z,39.40
2022-12-14T18:55:19.377Z,39.40
2022-12-14T18:57:47.954Z,39.30
2022-12-14T19:00:19.291Z,39.30
2022-12-14T19:02:47.025Z,39.30
2022-12-14T19:05:23.228Z,39.20
2022-12-14T19:07:52.766Z,39.10
2022-12-14T19:10:22.799Z,39.10
2022-12-14T19:12:50.247Z,39.10
2022-12-14T19:15:20.167Z,39.00
2022-12-14T19:17:47.054Z,39.10
2022-12-14T19:22:42.265Z,39.10
2022-12-14T19:25:09.967Z,39.00
2022-12-14T19:28:15.578Z,38.90
2022-12-14T19:30:24.297Z,39.00
2022-12-14T19:32:55.506Z,38.90
2022-12-14T19:35:23.578Z,39.00
2022-12-14T19:37:50.762Z,39.10
2022-12-14T19:40:18.018Z,39.00
2022-12-14T19:42:46.348Z,38.90
2022-12-14T19:45:13.766Z,39.00
2022-12-14T19:47:40.697Z,38.90
2022-12-14T19:50:08.230Z,38.80
2022-12-14T19:52:35.089Z,38.80
2022-12-14T19:55:02.411Z,38.70
2022-12-14T19:57:29.410Z,38.60
2022-12-14T19:59:57.146Z,38.60
2022-12-14T20:02:24.066Z,38.50
2022-12-14T20:04:51.017Z,38.50
2022-12-14T20:07:17.985Z,38.50
2022-12-14T20:09:44.688Z,38.40
2022-12-14T20:12:11.760Z,38.30
2022-12-14T20:14:42.624Z,38.30
2022-12-14T20:17:11.179Z,38.30
2022-12-14T20:19:39.599Z,38.20
2022-12-14T20:22:08.142Z,38.10
2022-12-14T20:24:35.796Z,38.00
2022-12-14T20:29:29.738Z,37.90
2022-12-14T20:31:56.743Z,37.80
2022-12-14T20:36:51.130Z,37.80
2022-12-14T20:39:17.824Z,37.80
2022-12-14T20:41:44.633Z,37.80
2022-12-14T20:44:15.858Z,37.70
2022-12-14T20:46:45.384Z,37.60
2022-12-14T20:49:15.668Z,37.60
2022-12-14T20:51:43.739Z,37.60
2022-12-14T20:54:16.435Z,37.50
2022-12-14T20:56:43.706Z,37.50
2022-12-14T20:59:10.849Z,37.40
2022-12-14T21:01:38.956Z,37.40
2022-12-14T21:04:06.547Z,37.40
2022-12-14T21:06:37.454Z,37.60
2022-12-14T21:09:11.586Z,37.40
2022-12-14T21:12:02.277Z,37.40
2022-12-14T21:14:32.302Z,37.30
2022-12-14T21:17:01.079Z,37.40
2022-12-14T21:21:55.427Z,37.20
2022-12-14T21:25:02.222Z,37.20
2022-12-14T21:27:16.438Z,37.20
2022-12-14T21:29:43.271Z,37.20
2022-12-14T21:32:10.091Z,37.20
2022-12-14T21:34:36.949Z,37.20
2022-12-14T21:37:03.702Z,37.20
2022-12-14T21:39:30.405Z,37.20
2022-12-14T21:42:15.653Z,37.20
2022-12-14T21:44:43.849Z,37.20
2022-12-14T21:47:15.482Z,37.20
2022-12-14T21:49:43.853Z,37.20
2022-12-14T21:52:14.151Z,37.20
2022-12-14T21:54:41.486Z,37.10
2022-12-14T21:57:33.026Z,37.10
2022-12-14T22:00:00.041Z,37.70
2022-12-14T22:02:27.077Z,37.10
2022-12-14T22:05:00.873Z,37.10
2022-12-14T22:07:33.697Z,37.10
2022-12-14T22:10:00.893Z,37.10
2022-12-14T22:12:27.853Z,37.00
2022-12-14T22:14:54.824Z,37.00
2022-12-14T22:17:21.541Z,36.90
2022-12-14T22:19:50.625Z,36.90
2022-12-14T22:22:17.428Z,36.90
2022-12-14T22:24:44.775Z,36.90
2022-12-14T22:27:12.700Z,36.90
2022-12-14T22:29:39.657Z,36.90
2022-12-14T22:32:07.221Z,36.80
2022-12-14T22:34:34.286Z,37.10
2022-12-14T22:37:01.586Z,36.90
2022-12-14T22:39:28.386Z,36.80
2022-12-14T22:41:55.089Z,36.80
2022-12-14T22:44:21.766Z,36.80
2022-12-14T22:46:48.451Z,36.60
2022-12-14T22:49:16.720Z,36.60
2022-12-14T22:51:43.580Z,36.60
2022-12-14T22:54:18.022Z,36.70
2022-12-14T22:56:54.070Z,36.70
2022-12-14T22:59:25.672Z,36.60
2022-12-14T23:01:53.286Z,36.50
2022-12-14T23:04:20.869Z,36.50
2022-12-14T23:06:47.838Z,36.50
2022-12-14T23:09:33.221Z,36.60
2022-12-14T23:12:21.872Z,36.50
2022-12-14T23:15:08.058Z,36.50
2022-12-14T23:17:54.006Z,36.50
2022-12-14T23:20:39.501Z,39.40
2022-12-14T23:23:28.344Z,38.00
2022-12-14T23:26:13.978Z,37.30
2022-12-14T23:28:59.414Z,37.00
2022-12-14T23:31:45.002Z,36.30
2022-12-14T23:34:30.456Z,36.40
2022-12-14T23:37:20.043Z,36.40
2022-12-14T23:40:06.002Z,36.20
2022-12-14T23:42:51.714Z,36.30
2022-12-14T23:45:37.078Z,36.30
2022-12-14T23:48:22.763Z,36.20
2022-12-14T23:51:08.221Z,36.40
2022-12-14T23:53:53.853Z,38.50
2022-12-14T23:56:39.685Z,36.40
2022-12-14T23:59:31.575Z,36.40
